Time;durP1;ratioP1;P1;durP2;ratioP2;P2;SDS_P1;SDS_P2;PMS_P1;PMS_P2;Temp;Humidity;BMP_temperature;BMP_pressure;BME280_temperature;BME280_humidity;BME280_pressure;Samples;Min_cycle;Max_cycle;Signal;HPM_P1;HPM_P2
2022/08/11 00:02:06;;;;;;;1.10;0.93;;;;;;;;;;7398868;19;20480;-81
2022/08/11 00:04:35;;;;;;;3.42;1.00;;;;;;;;;;7396028;19;20007;-80
2022/08/11 00:07:03;;;;;;;1.42;0.98;;;;;;;;;;7398675;19;20014;-81
2022/08/11 00:09:35;;;;;;;2.15;0.80;;;;;;;;;;7395166;19;20014;-82
2022/08/11 00:12:02;;;;;;;5.95;1.45;;;;;;;;;;7394344;19;20010;-79
2022/08/11 00:14:32;;;;;;;1.10;1.00;;;;;;;;;;7396105;19;20010;-80
2022/08/11 00:17:00;;;;;;;1.38;0.82;;;;;;;;;;7397961;19;20034;-80
2022/08/11 00:19:38;;;;;;;4.60;1.20;;;;;;;;;;7396657;19;20006;-81
2022/08/11 00:22:05;;;;;;;2.70;1.08;;;;;;;;;;7395410;19;20474;-79
2022/08/11 00:24:33;;;;;;;1.88;0.88;;;;;;;;;;7395052;19;20434;-80
2022/08/11 00:26:59;;;;;;;3.03;0.93;;;;;;;;;;7396588;19;20010;-80
2022/08/11 00:29:24;;;;;;;0.80;0.80;;;;;;;;;;7397800;19;19994;-79
2022/08/11 00:31:52;;;;;;;1.73;1.10;;;;;;;;;;7396378;19;20011;-80
2022/08/11 00:34:27;;;;;;;2.60;1.23;;;;;;;;;;7396223;19;20018;-80
2022/08/11 00:37:02;;;;;;;0.80;0.80;;;;;;;;;;7393973;19;20300;-80
2022/08/11 00:39:31;;;;;;;1.20;1.10;;;;;;;;;;7393360;19;20002;-80
2022/08/11 00:42:05;;;;;;;1.70;1.33;;;;;;;;;;7395268;19;20074;-80
2022/08/11 00:44:48;;;;;;;1.17;1.00;;;;;;;;;;7395726;19;20010;-80
2022/08/11 00:47:40;;;;;;;1.52;1.08;;;;;;;;;;7394678;19;20518;-80
2022/08/11 00:50:24;;;;;;;3.13;1.30;;;;;;;;;;7392627;19;20048;-80
2022/08/11 00:52:52;;;;;;;0.90;0.80;;;;;;;;;;7392954;19;20019;-80
2022/08/11 00:55:56;;;;;;;3.13;1.20;;;;;;;;;;7395718;19;20014;-81
2022/08/11 00:58:27;;;;;;;2.00;1.00;;;;;;;;;;7396174;19;20461;-81
2022/08/11 01:01:19;;;;;;;2.28;1.17;;;;;;;;;;7396266;19;20529;-80
2022/08/11 01:03:57;;;;;;;1.23;0.90;;;;;;;;;;7393705;19;20368;-79
2022/08/11 01:06:45;;;;;;;1.45;1.00;;;;;;;;;;7396557;19;20367;-80
2022/08/11 01:09:43;;;;;;;2.70;1.00;;;;;;;;;;7395624;19;20011;-80
2022/08/11 01:12:36;;;;;;;1.30;1.00;;;;;;;;;;7392274;19;19995;-80
2022/08/11 01:15:23;;;;;;;2.03;1.10;;;;;;;;;;7395312;19;20219;-80
2022/08/11 01:18:10;;;;;;;1.60;1.13;;;;;;;;;;7393708;19;20018;-81
2022/08/11 01:21:01;;;;;;;2.47;0.80;;;;;;;;;;7396564;19;20149;-81
2022/08/11 01:23:54;;;;;;;0.93;0.90;;;;;;;;;;7394822;19;20177;-82
2022/08/11 01:26:41;;;;;;;1.20;1.00;;;;;;;;;;7396698;19;20101;-81
2022/08/11 01:29:38;;;;;;;1.48;1.10;;;;;;;;;;7392999;19;20036;-82
2022/08/11 01:32:19;;;;;;;1.42;1.00;;;;;;;;;;7394307;19;20036;-81
2022/08/11 01:35:19;;;;;;;1.02;0.90;;;;;;;;;;7412276;19;20040;-81
2022/08/11 01:38:09;;;;;;;1.55;1.08;;;;;;;;;;7412540;19;20030;-80
2022/08/11 01:40:40;;;;;;;4.40;1.35;;;;;;;;;;7391384;19;20497;-80
2022/08/11 01:46:46;;;;;;;4.20;1.10;;;;;;;;;;7395020;19;20038;-81
2022/08/11 01:49:30;;;;;;;1.13;1.00;;;;;;;;;;7393174;19;20035;-80
2022/08/11 01:52:18;;;;;;;1.85;1.10;;;;;;;;;;7389752;19;20046;-80
2022/08/11 01:55:11;;;;;;;2.47;1.23;;;;;;;;;;7391748;19;20007;-80
2022/08/11 01:58:05;;;;;;;1.25;1.15;;;;;;;;;;7392459;19;20126;-80
2022/08/11 02:00:45;;;;;;;2.03;0.98;;;;;;;;;;7391106;19;20018;-79
2022/08/11 02:03:22;;;;;;;2.67;1.10;;;;;;;;;;7389673;19;20010;-80
2022/08/11 02:06:01;;;;;;;1.92;1.00;;;;;;;;;;7390275;19;20010;-81
2022/08/11 02:08:46;;;;;;;1.25;1.15;;;;;;;;;;7391160;19;20010;-80
2022/08/11 02:11:30;;;;;;;1.40;0.90;;;;;;;;;;7392365;19;20006;-80
2022/08/11 02:14:18;;;;;;;1.48;1.20;;;;;;;;;;7390324;19;20019;-80
2022/08/11 02:16:58;;;;;;;4.30;1.35;;;;;;;;;;7389737;19;20062;-79
2022/08/11 02:26:03;;;;;;;2.88;1.08;;;;;;;;;;7391210;19;20018;-80
2022/08/11 02:28:41;;;;;;;2.78;1.20;;;;;;;;;;7393386;19;20003;-81
2022/08/11 02:34:14;;;;;;;2.20;1.23;;;;;;;;;;7390248;19;20034;-81
2022/08/11 02:37:30;;;;;;;1.48;1.00;;;;;;;;;;7392652;19;20011;-80
2022/08/11 02:39:59;;;;;;;2.58;1.30;;;;;;;;;;7386851;19;20010;-80
2022/08/11 02:42:43;;;;;;;1.88;1.30;;;;;;;;;;7387978;19;20143;-79
2022/08/11 02:45:11;;;;;;;3.15;1.15;;;;;;;;;;7389834;19;20003;-80
2022/08/11 02:51:05;;;;;;;1.75;1.20;;;;;;;;;;7390404;19;20025;-78
2022/08/11 02:53:52;;;;;;;1.90;1.08;;;;;;;;;;7390276;19;20469;-78
2022/08/11 02:56:36;;;;;;;1.95;1.15;;;;;;;;;;7391994;19;20018;-78
2022/08/11 03:02:15;;;;;;;1.40;1.13;;;;;;;;;;7385124;19;20021;-78
2022/08/11 03:05:15;;;;;;;2.70;1.20;;;;;;;;;;7384440;19;20373;-78
2022/08/11 03:08:14;;;;;;;1.33;0.98;;;;;;;;;;7393792;19;20003;-79
2022/08/11 03:17:07;;;;;;;2.00;1.30;;;;;;;;;;7398808;19;20112;-81
2022/08/11 03:19:53;;;;;;;1.25;1.00;;;;;;;;;;7399499;19;20027;-80
2022/08/11 03:22:33;;;;;;;1.88;1.00;;;;;;;;;;7401130;19;19998;-81
2022/08/11 03:25:14;;;;;;;1.20;1.10;;;;;;;;;;7397062;19;20006;-81
2022/08/11 03:28:02;;;;;;;5.10;1.20;;;;;;;;;;7400261;19;20011;-80
2022/08/11 03:30:51;;;;;;;1.15;0.95;;;;;;;;;;7395173;19;20014;-81
2022/08/11 03:36:30;;;;;;;1.52;1.00;;;;;;;;;;7395136;19;20510;-81
2022/08/11 03:39:01;;;;;;;2.85;1.17;;;;;;;;;;7397868;19;20006;-80
2022/08/11 03:41:54;;;;;;;2.90;1.02;;;;;;;;;;7395284;19;20600;-80
2022/08/11 03:44:31;;;;;;;2.10;1.20;;;;;;;;;;7392957;19;19995;-81
2022/08/11 03:47:04;;;;;;;4.65;1.30;;;;;;;;;;7396800;19;20043;-80
2022/08/11 03:49:32;;;;;;;1.85;1.00;;;;;;;;;;7393446;19;20014;-81
2022/08/11 03:52:20;;;;;;;1.83;1.00;;;;;;;;;;7397345;19;20010;-80
2022/08/11 03:55:19;;;;;;;2.38;1.38;;;;;;;;;;7397234;19;20078;-82
2022/08/11 03:58:13;;;;;;;2.13;1.10;;;;;;;;;;7397493;19;20014;-80
2022/08/11 04:01:01;;;;;;;1.50;1.25;;;;;;;;;;7398274;19;20018;-80
2022/08/11 04:04:01;;;;;;;0.77;0.77;;;;;;;;;;7395897;19;20265;-81
2022/08/11 04:06:46;;;;;;;4.40;1.05;;;;;;;;;;7398070;19;20014;-81
2022/08/11 04:09:36;;;;;;;2.10;1.63;;;;;;;;;;7393733;19;20315;-80
2022/08/11 04:12:04;;;;;;;1.65;1.20;;;;;;;;;;7395992;19;20595;-80
2022/08/11 04:17:29;;;;;;;3.30;1.13;;;;;;;;;;7398353;19;20632;-80
2022/08/11 04:20:13;;;;;;;4.27;1.17;;;;;;;;;;7394059;19;20040;-81
2022/08/11 04:23:02;;;;;;;1.45;1.25;;;;;;;;;;7390911;19;20582;-80
2022/08/11 04:26:04;;;;;;;2.47;1.33;;;;;;;;;;7395209;19;20473;-81
2022/08/11 04:28:41;;;;;;;2.10;1.50;;;;;;;;;;7398495;19;20051;-81
2022/08/11 04:31:27;;;;;;;5.95;1.30;;;;;;;;;;7395125;19;20467;-81
2022/08/11 04:34:05;;;;;;;2.90;1.50;;;;;;;;;;7391637;19;19998;-81
2022/08/11 04:40:14;;;;;;;2.15;1.40;;;;;;;;;;7396184;19;20027;-81
2022/08/11 04:43:19;;;;;;;1.80;1.40;;;;;;;;;;7397345;19;20062;-81
2022/08/11 04:46:05;;;;;;;3.00;1.30;;;;;;;;;;7396955;19;20014;-81
2022/08/11 05:03:50;;;;;;;2.70;1.55;;;;;;;;;;7393713;19;20015;-80
2022/08/11 05:06:38;;;;;;;2.58;1.33;;;;;;;;;;7395635;19;20470;-79
2022/08/11 05:09:20;;;;;;;4.90;1.70;;;;;;;;;;7396060;19;20006;-80
2022/08/11 05:11:57;;;;;;;1.90;1.13;;;;;;;;;;7396828;19;20006;-80
2022/08/11 05:35:09;;;;;;;1.92;1.55;;;;;;;;;;7398896;19;20358;-80
2022/08/11 05:57:17;;;;;;;2.25;1.33;;;;;;;;;;7396218;19;20005;-79
2022/08/11 05:59:45;;;;;;;1.25;1.05;;;;;;;;;;7393357;19;20006;-79
2022/08/11 06:02:11;;;;;;;1.40;1.30;;;;;;;;;;7395032;19;19999;-79
2022/08/11 06:04:39;;;;;;;3.10;1.58;;;;;;;;;;7386890;19;20432;-79
2022/08/11 06:07:10;;;;;;;1.20;1.10;;;;;;;;;;7392786;19;20494;-79
2022/08/11 06:09:45;;;;;;;2.67;1.30;;;;;;;;;;7388920;19;20018;-79
2022/08/11 06:12:31;;;;;;;3.17;1.27;;;;;;;;;;7392368;19;20469;-79
2022/08/11 06:15:01;;;;;;;2.75;1.60;;;;;;;;;;7395135;19;19999;-79
2022/08/11 06:17:30;;;;;;;2.72;1.33;;;;;;;;;;7390567;19;20059;-79
2022/08/11 06:20:00;;;;;;;1.67;1.30;;;;;;;;;;7388773;19;20030;-79
2022/08/11 06:22:26;;;;;;;1.90;1.35;;;;;;;;;;7393618;19;20007;-79
2022/08/11 06:24:59;;;;;;;2.33;1.38;;;;;;;;;;7393382;19;20005;-79
2022/08/11 06:27:29;;;;;;;2.85;1.58;;;;;;;;;;7391388;19;20409;-79
2022/08/11 06:29:55;;;;;;;3.25;1.40;;;;;;;;;;7397833;19;20019;-78
2022/08/11 06:32:26;;;;;;;3.33;1.38;;;;;;;;;;7419976;19;20031;-80
2022/08/11 06:35:16;;;;;;;2.08;1.40;;;;;;;;;;7420917;19;20021;-79
2022/08/11 06:38:10;;;;;;;2.17;1.30;;;;;;;;;;7418712;19;20006;-79
2022/08/11 06:41:29;;;;;;;4.93;1.35;;;;;;;;;;7419573;19;20015;-80
2022/08/11 06:43:46;;;;;;;2.65;1.65;;;;;;;;;;7395041;19;20015;-80
2022/08/11 06:46:16;;;;;;;2.20;1.23;;;;;;;;;;7395506;19;20010;-81
2022/08/11 06:48:43;;;;;;;2.08;1.10;;;;;;;;;;7401817;19;20003;-80
2022/08/11 06:51:13;;;;;;;2.35;1.23;;;;;;;;;;7397398;19;20038;-81
2022/08/11 06:53:52;;;;;;;2.85;1.42;;;;;;;;;;7395882;19;20453;-81
2022/08/11 07:02:17;;;;;;;4.25;1.30;;;;;;;;;;7399584;19;20144;-80
2022/08/11 07:04:46;;;;;;;8.40;1.73;;;;;;;;;;7399055;19;20078;-81
2022/08/11 07:16:40;;;;;;;3.20;1.30;;;;;;;;;;7400315;19;20021;-80
2022/08/11 07:30:29;;;;;;;2.00;1.23;;;;;;;;;;7399563;19;20010;-81
2022/08/11 07:33:00;;;;;;;2.05;1.50;;;;;;;;;;7395976;19;20316;-81
2022/08/11 07:35:41;;;;;;;3.22;1.50;;;;;;;;;;7395480;19;20352;-80
2022/08/11 07:38:15;;;;;;;1.98;1.33;;;;;;;;;;7399608;19;20020;-81
2022/08/11 07:40:45;;;;;;;2.03;1.27;;;;;;;;;;7397965;19;20070;-81
2022/08/11 07:43:13;;;;;;;5.40;1.20;;;;;;;;;;7395340;19;20019;-81
2022/08/11 07:54:33;;;;;;;;;;;;;;;;;;7397998;19;20129;-79
2022/08/11 07:57:00;;;;;;;2.17;1.27;;;;;;;;;;7396519;19;20256;-80
2022/08/11 08:18:39;;;;;;;1.23;1.05;;;;;;;;;;7397122;19;20095;-80
2022/08/11 08:21:11;;;;;;;2.05;1.27;;;;;;;;;;7396544;19;20466;-80
2022/08/11 08:23:38;;;;;;;1.65;1.10;;;;;;;;;;7398389;19;20359;-80
2022/08/11 08:26:57;;;;;;;1.88;1.23;;;;;;;;;;7395408;19;20009;-80
2022/08/11 08:30:45;;;;;;;2.05;1.10;;;;;;;;;;7393565;19;20470;-80
2022/08/11 08:31:41;;;;;;;3.90;1.20;;;;;;;;;;7394883;19;20002;-80
2022/08/11 08:34:08;;;;;;;2.42;1.00;;;;;;;;;;7396109;19;20023;-80
2022/08/11 08:36:35;;;;;;;2.42;1.30;;;;;;;;;;7393912;19;20046;-80
2022/08/11 08:39:01;;;;;;;1.77;1.30;;;;;;;;;;7394249;19;20005;-80
2022/08/11 08:41:28;;;;;;;1.65;1.40;;;;;;;;;;7398639;19;20438;-81
2022/08/11 08:44:02;;;;;;;1.73;1.10;;;;;;;;;;7393333;19;20106;-80
2022/08/11 08:46:36;;;;;;;1.20;1.10;;;;;;;;;;7395915;19;20551;-80
2022/08/11 08:49:03;;;;;;;5.45;1.40;;;;;;;;;;7391136;19;20077;-80
2022/08/11 08:51:35;;;;;;;2.15;1.10;;;;;;;;;;7394511;19;20481;-80
2022/08/11 08:54:18;;;;;;;1.67;1.10;;;;;;;;;;7395449;19;19990;-79
2022/08/11 08:56:45;;;;;;;2.25;1.40;;;;;;;;;;7392798;19;20019;-79
2022/08/11 08:59:15;;;;;;;2.40;1.23;;;;;;;;;;7393483;19;19999;-79
2022/08/11 09:01:46;;;;;;;1.98;1.23;;;;;;;;;;7395081;19;19990;-79
2022/08/11 09:04:13;;;;;;;1.33;1.05;;;;;;;;;;7393290;19;20015;-79
2022/08/11 09:06:41;;;;;;;1.23;1.13;;;;;;;;;;7397499;19;20014;-80
2022/08/11 09:09:15;;;;;;;1.55;1.02;;;;;;;;;;7392667;19;20010;-80
2022/08/11 09:11:49;;;;;;;3.63;1.35;;;;;;;;;;7391579;19;20005;-80
2022/08/11 09:14:19;;;;;;;11.73;1.45;;;;;;;;;;7395135;19;20473;-80
2022/08/11 09:16:49;;;;;;;1.70;1.30;;;;;;;;;;7397628;19;20002;-80
2022/08/11 09:19:17;;;;;;;1.67;1.10;;;;;;;;;;7391426;19;20497;-79
2022/08/11 09:26:57;;;;;;;1.70;1.23;;;;;;;;;;7394524;19;20375;-79
2022/08/11 09:27:14;;;;;;;1.10;1.00;;;;;;;;;;7398312;19;20012;-80
2022/08/11 09:29:40;;;;;;;2.20;1.15;;;;;;;;;;7395877;19;20034;-80
2022/08/11 09:32:07;;;;;;;2.50;1.40;;;;;;;;;;7392865;19;20015;-79
2022/08/11 09:34:35;;;;;;;1.10;1.02;;;;;;;;;;7396848;19;20006;-80
2022/08/11 09:45:17;;;;;;;1.52;1.17;;;;;;;;;;7396595;19;20060;-79
2022/08/11 09:47:43;;;;;;;1.90;0.93;;;;;;;;;;7394423;19;20320;-79
2022/08/11 09:50:09;;;;;;;1.52;1.20;;;;;;;;;;7408767;19;20014;-79
2022/08/11 09:52:37;;;;;;;5.43;1.40;;;;;;;;;;7423656;19;20019;-79
2022/08/11 09:55:09;;;;;;;1.73;1.20;;;;;;;;;;7401910;19;20473;-79
2022/08/11 10:00:28;;;;;;;1.08;1.00;;;;;;;;;;7395432;19;20030;-79
2022/08/11 10:02:55;;;;;;;2.35;1.40;;;;;;;;;;7395809;19;20011;-81
2022/08/11 10:08:10;;;;;;;1.77;1.27;;;;;;;;;;7386337;19;20013;-80
2022/08/11 10:10:38;;;;;;;3.20;1.25;;;;;;;;;;7395151;19;19998;-80
2022/08/11 10:13:17;;;;;;;4.03;1.30;;;;;;;;;;7392915;19;20030;-80
2022/08/11 10:15:45;;;;;;;1.90;1.10;;;;;;;;;;7394838;19;20009;-80
2022/08/11 10:18:41;;;;;;;7.72;1.20;;;;;;;;;;7394278;19;20545;-79
2022/08/11 10:21:27;;;;;;;2.95;0.98;;;;;;;;;;7394048;19;20019;-80
2022/08/11 10:26:53;;;;;;;2.10;1.20;;;;;;;;;;7396215;19;20100;-80
2022/08/11 10:35:07;;;;;;;2.13;1.00;;;;;;;;;;7394093;19;20026;-81
2022/08/11 10:37:36;;;;;;;1.23;0.90;;;;;;;;;;7388413;19;20003;-82
2022/08/11 10:40:04;;;;;;;1.40;1.02;;;;;;;;;;7394528;19;20000;-82
2022/08/11 10:48:20;;;;;;;2.78;0.95;;;;;;;;;;7391051;19;20712;-83
2022/08/11 10:59:15;;;;;;;;;;;;;;;;;;7388182;19;20420;-82
2022/08/11 11:01:43;;;;;;;1.02;0.82;;;;;;;;;;7389981;19;19919;-82
2022/08/11 11:04:12;;;;;;;1.33;1.10;;;;;;;;;;7389627;19;20006;-82
2022/08/11 11:07:04;;;;;;;1.65;1.23;;;;;;;;;;7391116;19;20030;-82
2022/08/11 11:09:31;;;;;;;2.45;1.23;;;;;;;;;;7387918;19;20018;-82
2022/08/11 11:18:00;;;;;;;3.10;1.20;;;;;;;;;;7393237;19;20018;-82
2022/08/11 11:20:42;;;;;;;2.70;1.13;;;;;;;;;;7391033;19;20380;-81
2022/08/11 11:23:16;;;;;;;2.22;0.95;;;;;;;;;;7391440;19;20013;-81
2022/08/11 11:26:18;;;;;;;1.30;1.20;;;;;;;;;;7387694;19;19999;-81
2022/08/11 11:28:59;;;;;;;3.63;0.77;;;;;;;;;;7385496;19;20327;-81
2022/08/11 11:31:27;;;;;;;0.90;0.90;;;;;;;;;;7389432;19;20018;-81
2022/08/11 11:34:25;;;;;;;1.00;0.90;;;;;;;;;;7394179;19;20014;-81
2022/08/11 11:36:54;;;;;;;1.27;1.08;;;;;;;;;;7395420;19;20007;-81
2022/08/11 11:39:23;;;;;;;1.67;1.10;;;;;;;;;;7393865;19;19995;-81
2022/08/11 11:41:54;;;;;;;0.95;0.93;;;;;;;;;;7395147;19;20062;-81
2022/08/11 11:44:24;;;;;;;3.03;0.90;;;;;;;;;;7395265;19;20043;-81
2022/08/11 11:46:50;;;;;;;1.20;1.05;;;;;;;;;;7395130;19;20010;-80
2022/08/11 11:49:17;;;;;;;7.28;1.17;;;;;;;;;;7397284;19;20490;-81
2022/08/11 11:51:45;;;;;;;3.88;1.23;;;;;;;;;;7395741;19;20003;-81
2022/08/11 11:54:12;;;;;;;1.38;1.00;;;;;;;;;;7393319;19;20403;-81
2022/08/11 11:56:38;;;;;;;2.55;1.10;;;;;;;;;;7399426;19;19998;-81
2022/08/11 12:01:48;;;;;;;2.42;1.05;;;;;;;;;;7393999;19;20441;-81
2022/08/11 12:04:14;;;;;;;1.02;0.98;;;;;;;;;;7393647;19;20014;-81
2022/08/11 12:06:40;;;;;;;0.73;0.73;;;;;;;;;;7396671;19;20023;-81
2022/08/11 12:09:06;;;;;;;3.17;1.10;;;;;;;;;;7393007;19;20002;-81
2022/08/11 12:14:18;;;;;;;1.88;1.00;;;;;;;;;;7395612;19;20005;-81
2022/08/11 12:16:44;;;;;;;1.45;1.10;;;;;;;;;;7397513;19;20481;-81
2022/08/11 12:19:13;;;;;;;1.40;0.90;;;;;;;;;;7394748;19;20018;-81
2022/08/11 12:27:19;;;;;;;1.05;0.95;;;;;;;;;;7396517;19;20006;-81
2022/08/11 12:27:21;;;;;;;1.20;1.10;;;;;;;;;;7398829;19;20044;-81
2022/08/11 12:29:49;;;;;;;1.38;1.05;;;;;;;;;;7394778;19;20011;-81
2022/08/11 12:32:15;;;;;;;1.75;1.13;;;;;;;;;;7398555;19;19994;-80
2022/08/11 12:34:40;;;;;;;1.73;1.08;;;;;;;;;;7392976;19;20017;-78
2022/08/11 12:37:11;;;;;;;1.27;1.00;;;;;;;;;;7394788;19;20342;-78
2022/08/11 12:45:27;;;;;;;1.40;0.82;;;;;;;;;;7393891;19;20032;-78
2022/08/11 12:54:12;;;;;;;1.42;0.85;;;;;;;;;;7393828;19;20345;-77
2022/08/11 13:05:11;;;;;;;;;;;;;;;;;;7393793;19;20013;-78
2022/08/11 13:07:39;;;;;;;1.95;1.10;;;;;;;;;;7394391;19;19919;-77
2022/08/11 13:10:07;;;;;;;1.73;0.90;;;;;;;;;;7395722;19;20006;-77
2022/08/11 13:12:48;;;;;;;1.50;0.90;;;;;;;;;;7394770;19;20023;-78
2022/08/11 13:15:18;;;;;;;1.38;0.82;;;;;;;;;;7395593;19;20347;-78
2022/08/11 13:17:44;;;;;;;1.45;1.00;;;;;;;;;;7393304;19;20021;-78
2022/08/11 13:20:12;;;;;;;1.10;1.00;;;;;;;;;;7389641;19;20381;-78
2022/08/11 13:22:44;;;;;;;1.52;0.88;;;;;;;;;;7392783;19;20024;-77
2022/08/11 13:25:11;;;;;;;4.65;1.23;;;;;;;;;;7393490;19;20085;-79
2022/08/11 13:27:37;;;;;;;2.20;0.90;;;;;;;;;;7395326;19;20008;-79
2022/08/11 13:32:48;;;;;;;0.95;0.70;;;;;;;;;;7397020;19;20014;-78
2022/08/11 13:35:14;;;;;;;2.50;0.80;;;;;;;;;;7394889;19;20102;-77
2022/08/11 13:37:43;;;;;;;2.22;1.13;;;;;;;;;;7394074;19;20521;-77
2022/08/11 13:40:10;;;;;;;0.98;0.82;;;;;;;;;;7389529;19;20010;-77
2022/08/11 13:42:37;;;;;;;2.25;1.10;;;;;;;;;;7396267;19;19990;-77
2022/08/11 13:45:03;;;;;;;1.70;1.10;;;;;;;;;;7395844;19;20029;-77
2022/08/11 13:47:28;;;;;;;1.15;0.90;;;;;;;;;;7397006;19;20003;-77
2022/08/11 13:49:55;;;;;;;2.25;0.90;;;;;;;;;;7393540;19;20034;-78
2022/08/11 13:52:20;;;;;;;1.50;0.90;;;;;;;;;;7392316;19;20351;-78
2022/08/11 13:54:48;;;;;;;2.08;0.85;;;;;;;;;;7390377;19;20026;-78
2022/08/11 13:57:17;;;;;;;2.20;1.00;;;;;;;;;;7392819;19;20022;-77
2022/08/11 13:59:42;;;;;;;2.03;0.85;;;;;;;;;;7394332;19;20347;-77
2022/08/11 14:02:14;;;;;;;0.65;0.65;;;;;;;;;;7396828;19;20017;-77
2022/08/11 14:04:44;;;;;;;0.90;0.90;;;;;;;;;;7388516;19;20635;-77
2022/08/11 14:07:13;;;;;;;1.40;1.00;;;;;;;;;;7389863;19;20069;-78
2022/08/11 14:09:41;;;;;;;5.75;0.80;;;;;;;;;;7388766;19;20066;-77
2022/08/11 14:15:24;;;;;;;0.90;0.90;;;;;;;;;;7397549;19;20027;-79
2022/08/11 14:18:01;;;;;;;3.65;1.00;;;;;;;;;;7391464;19;19998;-78
2022/08/11 14:22:05;;;;;;;0.80;0.75;;;;;;;;;;7393818;19;20011;-78
2022/08/11 14:23:15;;;;;;;3.55;0.85;;;;;;;;;;7393131;19;20023;-78
2022/08/11 14:26:22;;;;;;;2.65;0.80;;;;;;;;;;7393852;19;20118;-77
2022/08/11 14:28:27;;;;;;;3.22;1.00;;;;;;;;;;7395232;19;19998;-77
2022/08/11 14:30:55;;;;;;;0.80;0.68;;;;;;;;;;7393927;19;20044;-77
2022/08/11 14:33:21;;;;;;;3.35;0.88;;;;;;;;;;7395658;19;20006;-78
2022/08/11 14:35:47;;;;;;;0.80;0.80;;;;;;;;;;7395073;19;20007;-77
2022/08/11 14:38:12;;;;;;;0.98;0.88;;;;;;;;;;7392856;19;20027;-77
2022/08/11 14:48:53;;;;;;;0.70;0.70;;;;;;;;;;7392081;19;20014;-77
2022/08/11 14:51:21;;;;;;;0.65;0.65;;;;;;;;;;7393642;19;20027;-77
2022/08/11 14:53:46;;;;;;;1.70;0.73;;;;;;;;;;7388165;19;20029;-77
2022/08/11 14:58:56;;;;;;;0.82;0.80;;;;;;;;;;7387350;19;20017;-77
2022/08/11 15:04:06;;;;;;;1.58;0.80;;;;;;;;;;7383362;19;20039;-78
2022/08/11 15:06:33;;;;;;;1.17;0.90;;;;;;;;;;7391756;19;20111;-78
2022/08/11 15:08:59;;;;;;;3.30;0.80;;;;;;;;;;7394308;19;20002;-77
2022/08/11 15:14:13;;;;;;;1.63;0.80;;;;;;;;;;7395892;19;20017;-78
2022/08/11 15:19:29;;;;;;;1.42;0.90;;;;;;;;;;7399645;19;20094;-78
2022/08/11 15:24:38;;;;;;;1.00;0.90;;;;;;;;;;7392720;19;20034;-78
2022/08/11 15:38:13;;;;;;;2.72;0.90;;;;;;;;;;7396108;19;20013;-77
2022/08/11 15:46:26;;;;;;;1.17;0.70;;;;;;;;;;7400284;19;20027;-78
2022/08/11 15:48:57;;;;;;;0.70;0.70;;;;;;;;;;7392689;19;20011;-78
2022/08/11 15:51:35;;;;;;;0.82;0.70;;;;;;;;;;7390890;19;20018;-78
2022/08/11 15:54:08;;;;;;;0.93;0.85;;;;;;;;;;7390733;19;20374;-79
2022/08/11 15:56:36;;;;;;;0.70;0.70;;;;;;;;;;7395621;19;20010;-76
2022/08/11 16:04:38;;;;;;;0.75;0.75;;;;;;;;;;7392002;19;20546;-78
2022/08/11 16:07:10;;;;;;;1.40;0.90;;;;;;;;;;7392873;19;20034;-78
2022/08/11 16:09:46;;;;;;;0.70;0.70;;;;;;;;;;7396022;19;20010;-79
2022/08/11 16:12:16;;;;;;;0.80;0.80;;;;;;;;;;7394767;19;20018;-78
2022/08/11 16:17:39;;;;;;;2.00;0.73;;;;;;;;;;7396970;19;20030;-78
2022/08/11 16:20:07;;;;;;;3.72;0.82;;;;;;;;;;7391790;19;20402;-79
2022/08/11 16:22:44;;;;;;;1.30;0.85;;;;;;;;;;7392917;19;20011;-79
2022/08/11 16:25:22;;;;;;;1.25;0.70;;;;;;;;;;7397989;19;20022;-79
2022/08/11 16:27:55;;;;;;;1.25;0.82;;;;;;;;;;7396639;19;19998;-79
2022/08/11 16:30:21;;;;;;;1.10;0.70;;;;;;;;;;7396056;19;20065;-78
2022/08/11 16:32:52;;;;;;;0.90;0.70;;;;;;;;;;7396014;19;20022;-79
2022/08/11 16:40:53;;;;;;;0.70;0.70;;;;;;;;;;7399351;19;20223;-79
2022/08/11 16:49:05;;;;;;;1.33;0.80;;;;;;;;;;7397257;19;20031;-79
2022/08/11 16:51:32;;;;;;;1.15;0.82;;;;;;;;;;7391750;19;20038;-79
2022/08/11 16:53:58;;;;;;;0.73;0.70;;;;;;;;;;7392339;19;20074;-80
2022/08/11 16:56:37;;;;;;;0.80;0.80;;;;;;;;;;7397701;19;20010;-78
2022/08/11 16:59:16;;;;;;;0.80;0.80;;;;;;;;;;7394917;19;20349;-79
2022/08/11 17:01:46;;;;;;;1.75;0.80;;;;;;;;;;7393553;19;20094;-79
2022/08/11 17:13:07;;;;;;;0.80;0.70;;;;;;;;;;7392635;19;20023;-79
2022/08/11 17:18:41;;;;;;;1.05;0.90;;;;;;;;;;7397693;19;20512;-79
2022/08/11 17:21:11;;;;;;;0.60;0.57;;;;;;;;;;7395370;19;20010;-78
2022/08/11 17:23:51;;;;;;;1.27;0.77;;;;;;;;;;7390659;19;20015;-78
2022/08/11 17:26:20;;;;;;;0.82;0.60;;;;;;;;;;7387929;19;20324;-79
2022/08/11 17:28:50;;;;;;;2.33;0.70;;;;;;;;;;7390181;19;20449;-79
2022/08/11 17:36:55;;;;;;;6.78;0.90;;;;;;;;;;7386898;19;20028;-77
2022/08/11 17:39:27;;;;;;;1.48;0.70;;;;;;;;;;7390381;19;20424;-78
2022/08/11 17:50:11;;;;;;;1.92;0.70;;;;;;;;;;7393197;19;20489;-78
2022/08/11 18:00:53;;;;;;;1.95;0.80;;;;;;;;;;7394915;19;20012;-78
2022/08/11 18:03:31;;;;;;;0.68;0.65;;;;;;;;;;7387846;19;20094;-78
2022/08/11 18:05:56;;;;;;;0.93;0.80;;;;;;;;;;7386277;19;20360;-78
